sensor_id;sensor_type;location;lat;lon;timestamp;pressure;altitude;pressure_sealevel;temperature;humidity
10392;BME280;5242;49.244;6.774;2022-12-20T00:06:06;99963.06;;;4.93;100.00
10392;BME280;5242;49.244;6.774;2022-12-20T00:13:58;99950.38;;;4.71;100.00
10392;BME280;5242;49.244;6.774;2022-12-20T00:21:50;99948.59;;;4.52;100.00
10392;BME280;5242;49.244;6.774;2022-12-20T00:29:42;99946.59;;;4.44;100.00
10392;BME280;5242;49.244;6.774;2022-12-20T00:37:34;99935.31;;;4.42;100.00
10392;BME280;5242;49.244;6.774;2022-12-20T00:45:25;99918.28;;;4.33;100.00
10392;BME280;5242;49.244;6.774;2022-12-20T00:53:18;99916.88;;;4.22;100.00
10392;BME280;5242;49.244;6.774;2022-12-20T01:01:23;99915.78;;;4.23;100.00
10392;BME280;5242;49.244;6.774;2022-12-20T01:09:16;99916.97;;;4.17;100.00
10392;BME280;5242;49.244;6.774;2022-12-20T01:17:07;99907.91;;;4.12;100.00
10392;BME280;5242;49.244;6.774;2022-12-20T01:24:59;99889.56;;;4.37;100.00
10392;BME280;5242;49.244;6.774;2022-12-20T01:32:51;99887.19;;;4.72;100.00
10392;BME280;5242;49.244;6.774;2022-12-20T01:40:43;99892.78;;;4.98;100.00
10392;BME280;5242;49.244;6.774;2022-12-20T01:48:35;99893.78;;;5.02;100.00
10392;BME280;5242;49.244;6.774;2022-12-20T01:56:27;99890.53;;;4.91;100.00
10392;BME280;5242;49.244;6.774;2022-12-20T02:04:19;99902.22;;;4.87;100.00
10392;BME280;5242;49.244;6.774;2022-12-20T02:12:14;99884.31;;;4.91;100.00
10392;BME280;5242;49.244;6.774;2022-12-20T02:36:54;99857.19;;;5.50;100.00
10392;BME280;5242;49.244;6.774;2022-12-20T02:44:53;99852.66;;;5.68;100.00
10392;BME280;5242;49.244;6.774;2022-12-20T02:53:06;99853.81;;;5.93;100.00
10392;BME280;5242;49.244;6.774;2022-12-20T03:01:00;99841.34;;;6.14;100.00
10392;BME280;5242;49.244;6.774;2022-12-20T03:08:55;99806.34;;;6.26;100.00
10392;BME280;5242;49.244;6.774;2022-12-20T03:16:47;99802.38;;;6.32;100.00
10392;BME280;5242;49.244;6.774;2022-12-20T03:24:38;99797.28;;;6.40;100.00
10392;BME280;5242;49.244;6.774;2022-12-20T03:32:30;99810.47;;;6.41;100.00
10392;BME280;5242;49.244;6.774;2022-12-20T03:40:22;99799.66;;;6.50;100.00
10392;BME280;5242;49.244;6.774;2022-12-20T03:48:14;99811.59;;;6.66;100.00
10392;BME280;5242;49.244;6.774;2022-12-20T03:56:06;99825.44;;;6.65;100.00
10392;BME280;5242;49.244;6.774;2022-12-20T04:03:58;99822.25;;;6.63;100.00
10392;BME280;5242;49.244;6.774;2022-12-20T04:11:49;99820.50;;;6.58;100.00
10392;BME280;5242;49.244;6.774;2022-12-20T04:19:41;99808.41;;;6.38;100.00
10392;BME280;5242;49.244;6.774;2022-12-20T04:27:33;99805.88;;;6.33;100.00
10392;BME280;5242;49.244;6.774;2022-12-20T04:35:25;99796.81;;;6.29;100.00
10392;BME280;5242;49.244;6.774;2022-12-20T04:43:17;99783.59;;;6.27;100.00
10392;BME280;5242;49.244;6.774;2022-12-20T04:51:09;99786.78;;;6.47;100.00
10392;BME280;5242;49.244;6.774;2022-12-20T04:59:01;99774.84;;;6.48;100.00
10392;BME280;5242;49.244;6.774;2022-12-20T05:06:53;99787.88;;;6.55;100.00
10392;BME280;5242;49.244;6.774;2022-12-20T05:14:45;99799.34;;;6.60;100.00
10392;BME280;5242;49.244;6.774;2022-12-20T05:22:37;99788.81;;;6.67;100.00
10392;BME280;5242;49.244;6.774;2022-12-20T05:30:47;99783.41;;;6.59;100.00
10392;BME280;5242;49.244;6.774;2022-12-20T05:38:39;99763.06;;;6.52;100.00
10392;BME280;5242;49.244;6.774;2022-12-20T05:46:31;99768.28;;;6.49;100.00
10392;BME280;5242;49.244;6.774;2022-12-20T05:54:23;99756.19;;;6.64;100.00
10392;BME280;5242;49.244;6.774;2022-12-20T06:02:16;99737.53;;;6.71;100.00
10392;BME280;5242;49.244;6.774;2022-12-20T06:10:08;99735.44;;;6.77;100.00
10392;BME280;5242;49.244;6.774;2022-12-20T06:18:00;99743.75;;;6.71;100.00
10392;BME280;5242;49.244;6.774;2022-12-20T06:25:52;99757.75;;;6.73;100.00
10392;BME280;5242;49.244;6.774;2022-12-20T06:33:44;99738.53;;;6.58;100.00
10392;BME280;5242;49.244;6.774;2022-12-20T06:41:36;99751.63;;;6.29;100.00
10392;BME280;5242;49.244;6.774;2022-12-20T06:49:27;99744.78;;;6.15;100.00
10392;BME280;5242;49.244;6.774;2022-12-20T06:57:20;99722.31;;;5.88;100.00
10392;BME280;5242;49.244;6.774;2022-12-20T07:05:12;99725.81;;;5.88;100.00
10392;BME280;5242;49.244;6.774;2022-12-20T07:13:04;99711.34;;;5.84;100.00
10392;BME280;5242;49.244;6.774;2022-12-20T07:21:03;99713.13;;;5.98;100.00
10392;BME280;5242;49.244;6.774;2022-12-20T07:28:55;99707.88;;;6.01;100.00
10392;BME280;5242;49.244;6.774;2022-12-20T07:36:47;99715.50;;;5.91;100.00
10392;BME280;5242;49.244;6.774;2022-12-20T07:44:39;99690.97;;;5.87;100.00
10392;BME280;5242;49.244;6.774;2022-12-20T07:52:31;99702.44;;;5.93;100.00
10392;BME280;5242;49.244;6.774;2022-12-20T08:00:25;99694.47;;;5.87;100.00
10392;BME280;5242;49.244;6.774;2022-12-20T08:08:17;99711.81;;;5.86;100.00
10392;BME280;5242;49.244;6.774;2022-12-20T08:16:09;99711.34;;;5.84;100.00
10392;BME280;5242;49.244;6.774;2022-12-20T08:24:01;99719.28;;;5.89;100.00
10392;BME280;5242;49.244;6.774;2022-12-20T08:31:52;99709.47;;;5.94;100.00
10392;BME280;5242;49.244;6.774;2022-12-20T08:39:44;99694.19;;;6.15;100.00
10392;BME280;5242;49.244;6.774;2022-12-20T08:47:36;99675.72;;;6.26;100.00
10392;BME280;5242;49.244;6.774;2022-12-20T08:55:28;99689.25;;;6.35;100.00
10392;BME280;5242;49.244;6.774;2022-12-20T09:03:20;99676.16;;;6.45;100.00
10392;BME280;5242;49.244;6.774;2022-12-20T09:11:15;99677.69;;;6.72;100.00
10392;BME280;5242;49.244;6.774;2022-12-20T09:19:11;99680.22;;;7.07;100.00
10392;BME280;5242;49.244;6.774;2022-12-20T09:27:03;99690.88;;;7.42;100.00
10392;BME280;5242;49.244;6.774;2022-12-20T09:34:55;99697.94;;;7.85;100.00
10392;BME280;5242;49.244;6.774;2022-12-20T09:42:47;99690.69;;;8.31;100.00
10392;BME280;5242;49.244;6.774;2022-12-20T09:50:49;99677.00;;;8.73;100.00
10392;BME280;5242;49.244;6.774;2022-12-20T10:23:26;99629.78;;;10.08;100.00
10392;BME280;5242;49.244;6.774;2022-12-20T10:31:24;99641.53;;;10.12;100.00
10392;BME280;5242;49.244;6.774;2022-12-20T10:39:16;99614.00;;;10.13;100.00
10392;BME280;5242;49.244;6.774;2022-12-20T10:47:23;99612.34;;;10.24;100.00
10392;BME280;5242;49.244;6.774;2022-12-20T10:55:33;99592.34;;;10.33;100.00
10392;BME280;5242;49.244;6.774;2022-12-20T11:03:26;99587.34;;;10.35;100.00
10392;BME280;5242;49.244;6.774;2022-12-20T11:11:23;99590.44;;;10.49;100.00
10392;BME280;5242;49.244;6.774;2022-12-20T11:35:55;99539.63;;;11.43;100.00
10392;BME280;5242;49.244;6.774;2022-12-20T11:52:34;99489.09;;;12.38;98.82
10392;BME280;5242;49.244;6.774;2022-12-20T12:00:31;99479.81;;;12.99;91.49
10392;BME280;5242;49.244;6.774;2022-12-20T12:08:52;99470.03;;;13.29;95.96
10392;BME280;5242;49.244;6.774;2022-12-20T12:16:49;99475.44;;;13.25;94.08
10392;BME280;5242;49.244;6.774;2022-12-20T12:24:49;99473.38;;;13.15;91.41
10392;BME280;5242;49.244;6.774;2022-12-20T12:32:51;99464.09;;;12.93;91.71
10392;BME280;5242;49.244;6.774;2022-12-20T12:40:52;99453.81;;;12.82;93.40
10392;BME280;5242;49.244;6.774;2022-12-20T12:49:04;99453.31;;;13.03;91.77
10392;BME280;5242;49.244;6.774;2022-12-20T12:57:13;99438.84;;;13.03;94.83
10392;BME280;5242;49.244;6.774;2022-12-20T13:13:00;99453.00;;;12.78;92.08
10392;BME280;5242;49.244;6.774;2022-12-20T13:21:27;99451.22;;;12.63;91.93
10392;BME280;5242;49.244;6.774;2022-12-20T13:29:24;99431.69;;;12.61;93.82
10392;BME280;5242;49.244;6.774;2022-12-20T13:37:27;99410.88;;;12.53;93.57
10392;BME280;5242;49.244;6.774;2022-12-20T13:45:20;99412.88;;;12.56;93.83
10392;BME280;5242;49.244;6.774;2022-12-20T13:53:30;99400.34;;;12.55;91.88
10392;BME280;5242;49.244;6.774;2022-12-20T14:01:23;99412.31;;;12.43;92.95
10392;BME280;5242;49.244;6.774;2022-12-20T14:09:27;99413.94;;;12.21;91.83
10392;BME280;5242;49.244;6.774;2022-12-20T14:25:27;99410.38;;;12.17;91.81
10392;BME280;5242;49.244;6.774;2022-12-20T14:33:35;99391.97;;;12.14;92.21
10392;BME280;5242;49.244;6.774;2022-12-20T14:49:29;99379.03;;;11.84;91.75
10392;BME280;5242;49.244;6.774;2022-12-20T15:21:30;99391.03;;;11.57;92.25
10392;BME280;5242;49.244;6.774;2022-12-20T15:29:25;99400.28;;;11.52;92.74
10392;BME280;5242;49.244;6.774;2022-12-20T15:37:17;99392.50;;;11.50;92.77
10392;BME280;5242;49.244;6.774;2022-12-20T15:45:13;99394.59;;;11.38;93.22
10392;BME280;5242;49.244;6.774;2022-12-20T15:53:11;99382.56;;;11.19;94.28
10392;BME280;5242;49.244;6.774;2022-12-20T16:01:03;99388.69;;;10.93;95.32
10392;BME280;5242;49.244;6.774;2022-12-20T16:08:55;99382.81;;;10.72;96.54
10392;BME280;5242;49.244;6.774;2022-12-20T16:16:47;99378.22;;;10.56;97.64
10392;BME280;5242;49.244;6.774;2022-12-20T16:24:40;99366.94;;;10.38;97.90
10392;BME280;5242;49.244;6.774;2022-12-20T16:32:32;99367.38;;;10.24;99.66
10392;BME280;5242;49.244;6.774;2022-12-20T16:40:26;99366.25;;;10.10;100.00
10392;BME280;5242;49.244;6.774;2022-12-20T16:48:18;99346.00;;;10.07;100.00
10392;BME280;5242;49.244;6.774;2022-12-20T16:56:11;99347.59;;;10.08;100.00
10392;BME280;5242;49.244;6.774;2022-12-20T17:04:04;99354.59;;;10.09;100.00
10392;BME280;5242;49.244;6.774;2022-12-20T17:11:57;99350.75;;;10.10;100.00
10392;BME280;5242;49.244;6.774;2022-12-20T17:19:49;99365.97;;;10.15;100.00
10392;BME280;5242;49.244;6.774;2022-12-20T17:27:41;99373.19;;;10.23;100.00
10392;BME280;5242;49.244;6.774;2022-12-20T17:35:33;99370.63;;;10.30;100.00
10392;BME280;5242;49.244;6.774;2022-12-20T17:43:25;99378.91;;;10.34;100.00
10392;BME280;5242;49.244;6.774;2022-12-20T17:51:20;99362.91;;;10.32;100.00
10392;BME280;5242;49.244;6.774;2022-12-20T17:59:13;99369.50;;;10.31;100.00
10392;BME280;5242;49.244;6.774;2022-12-20T18:07:04;99378.25;;;10.24;100.00
10392;BME280;5242;49.244;6.774;2022-12-20T18:14:56;99376.88;;;10.15;100.00
10392;BME280;5242;49.244;6.774;2022-12-20T18:22:48;99389.78;;;10.02;100.00
10392;BME280;5242;49.244;6.774;2022-12-20T18:30:40;99396.22;;;9.94;100.00
10392;BME280;5242;49.244;6.774;2022-12-20T18:38:33;99399.13;;;9.85;100.00
10392;BME280;5242;49.244;6.774;2022-12-20T18:46:26;99400.94;;;9.81;100.00
10392;BME280;5242;49.244;6.774;2022-12-20T18:54:18;99407.44;;;9.76;100.00
10392;BME280;5242;49.244;6.774;2022-12-20T19:02:11;99398.88;;;9.74;100.00
10392;BME280;5242;49.244;6.774;2022-12-20T19:10:05;99389.81;;;9.70;100.00
10392;BME280;5242;49.244;6.774;2022-12-20T19:17:57;99384.56;;;9.62;100.00
10392;BME280;5242;49.244;6.774;2022-12-20T19:25:49;99369.31;;;9.57;100.00
10392;BME280;5242;49.244;6.774;2022-12-20T19:33:43;99371.38;;;9.48;100.00
10392;BME280;5242;49.244;6.774;2022-12-20T19:41:35;99355.34;;;9.43;100.00
10392;BME280;5242;49.244;6.774;2022-12-20T19:49:27;99356.81;;;9.40;100.00
10392;BME280;5242;49.244;6.774;2022-12-20T19:57:19;99354.56;;;9.42;100.00
10392;BME280;5242;49.244;6.774;2022-12-20T20:05:10;99354.63;;;9.46;100.00
10392;BME280;5242;49.244;6.774;2022-12-20T20:13:06;99350.34;;;9.45;100.00
10392;BME280;5242;49.244;6.774;2022-12-20T20:20:58;99351.50;;;9.44;100.00
10392;BME280;5242;49.244;6.774;2022-12-20T20:28:50;99349.91;;;9.43;100.00
10392;BME280;5242;49.244;6.774;2022-12-20T20:36:41;99348.34;;;9.42;100.00
10392;BME280;5242;49.244;6.774;2022-12-20T20:44:33;99335.97;;;9.44;100.00
10392;BME280;5242;49.244;6.774;2022-12-20T20:52:25;99337.72;;;9.52;100.00
10392;BME280;5242;49.244;6.774;2022-12-20T21:00:17;99332.28;;;9.52;100.00
10392;BME280;5242;49.244;6.774;2022-12-20T21:08:09;99330.78;;;9.55;100.00
10392;BME280;5242;49.244;6.774;2022-12-20T21:16:19;99329.31;;;9.57;100.00
10392;BME280;5242;49.244;6.774;2022-12-20T21:24:13;99315.25;;;9.55;100.00
10392;BME280;5242;49.244;6.774;2022-12-20T21:32:04;99316.50;;;9.58;100.00
10392;BME280;5242;49.244;6.774;2022-12-20T21:39:57;99313.78;;;9.58;100.00
10392;BME280;5242;49.244;6.774;2022-12-20T21:47:49;99316.03;;;9.56;100.00
10392;BME280;5242;49.244;6.774;2022-12-20T21:55:41;99314.66;;;9.62;100.00
10392;BME280;5242;49.244;6.774;2022-12-20T22:03:33;99322.53;;;9.67;100.00
10392;BME280;5242;49.244;6.774;2022-12-20T22:11:25;99305.78;;;9.65;100.00
10392;BME280;5242;49.244;6.774;2022-12-20T22:19:17;99309.81;;;9.71;100.00
10392;BME280;5242;49.244;6.774;2022-12-20T22:27:09;99309.53;;;9.76;100.00
10392;BME280;5242;49.244;6.774;2022-12-20T22:35:02;99308.31;;;9.74;100.00
10392;BME280;5242;49.244;6.774;2022-12-20T22:42:54;99302.72;;;9.67;100.00
10392;BME280;5242;49.244;6.774;2022-12-20T22:50:46;99289.22;;;9.70;100.00
10392;BME280;5242;49.244;6.774;2022-12-20T22:58:38;99296.91;;;9.68;100.00
10392;BME280;5242;49.244;6.774;2022-12-20T23:06:30;99291.91;;;9.70;100.00
10392;BME280;5242;49.244;6.774;2022-12-20T23:14:22;99292.19;;;9.65;100.00
10392;BME280;5242;49.244;6.774;2022-12-20T23:22:32;99292.72;;;9.71;100.00
10392;BME280;5242;49.244;6.774;2022-12-20T23:30:30;99289.28;;;9.74;100.00
10392;BME280;5242;49.244;6.774;2022-12-20T23:38:22;99286.66;;;9.77;100.00
10392;BME280;5242;49.244;6.774;2022-12-20T23:46:16;99291.72;;;9.79;100.00
10392;BME280;5242;49.244;6.774;2022-12-20T23:54:09;99284.09;;;9.85;100.00
